createdAt,value
2019-04-10T00:02:02.801Z,13.33
2019-04-10T00:07:14.231Z,12.85
2019-04-10T00:12:15.721Z,13.17
2019-04-10T00:17:20.752Z,12.64
2019-04-10T00:22:26.334Z,12.71
2019-04-10T00:27:31.071Z,13.61
2019-04-10T00:32:36.236Z,13.55
2019-04-10T00:37:41.276Z,13.89
2019-04-10T00:42:45.919Z,13.32
2019-04-10T00:47:51.077Z,13.55
2019-04-10T00:52:56.738Z,13.83
2019-04-10T00:58:01.615Z,13.73
2019-04-10T01:03:07.442Z,13.93
2019-04-10T01:08:12.701Z,14.10
2019-04-10T01:13:17.348Z,14.10
2019-04-10T01:18:21.981Z,14.04
2019-04-10T01:23:26.558Z,14.09
2019-04-10T01:28:33.132Z,14.06
2019-04-10T01:33:37.346Z,14.09
2019-04-10T01:38:42.087Z,14.22
2019-04-10T01:43:46.818Z,14.24
2019-04-10T01:48:51.572Z,14.33
2019-04-10T01:53:58.420Z,14.23
2019-04-10T01:59:05.637Z,14.29
2019-04-10T02:04:10.821Z,14.01
2019-04-10T02:09:15.573Z,14.29
2019-04-10T02:14:20.458Z,14.21
2019-04-10T02:19:26.121Z,14.20
2019-04-10T02:24:31.329Z,14.10
2019-04-10T02:29:36.076Z,14.04
2019-04-10T02:34:41.558Z,13.90
2019-04-10T02:39:50.247Z,13.73
2019-04-10T02:44:54.188Z,14.03
2019-04-10T02:50:00.524Z,14.31
2019-04-10T02:55:07.762Z,13.93
2019-04-10T03:00:14.167Z,13.92
2019-04-10T03:05:20.061Z,13.83
2019-04-10T03:10:34.059Z,13.65
2019-04-10T03:15:31.654Z,13.73
2019-04-10T03:20:38.446Z,13.95
2019-04-10T03:25:43.714Z,13.99
2019-04-10T03:30:49.482Z,14.27
2019-04-10T03:35:57.011Z,14.38
2019-04-10T03:41:01.996Z,14.38
2019-04-10T03:46:06.782Z,14.43
2019-04-10T03:51:12.330Z,14.22
2019-04-10T03:56:18.009Z,13.89
2019-04-10T04:01:22.973Z,13.90
2019-04-10T04:06:29.738Z,14.22
2019-04-10T04:11:34.905Z,14.30
2019-04-10T04:16:39.648Z,14.32
2019-04-10T04:21:44.386Z,14.29
2019-04-10T04:26:49.141Z,14.33
2019-04-10T04:31:54.703Z,14.36
2019-04-10T04:37:00.355Z,14.38
2019-04-10T04:42:05.205Z,14.35
2019-04-10T04:47:09.945Z,14.06
2019-04-10T04:52:14.696Z,14.43
2019-04-10T04:57:20.386Z,14.39
2019-04-10T05:02:26.228Z,14.59
2019-04-10T05:07:31.280Z,14.51
2019-04-10T05:12:36.128Z,13.70
2019-04-10T05:17:41.574Z,14.36
2019-04-10T05:22:46.434Z,14.35
2019-04-10T05:27:51.144Z,14.24
2019-04-10T05:32:55.921Z,14.22
2019-04-10T05:38:00.758Z,14.20
2019-04-10T05:43:05.857Z,14.23
2019-04-10T05:48:11.109Z,14.50
2019-04-10T05:53:16.239Z,14.39
2019-04-10T05:58:21.727Z,13.97
2019-04-10T06:03:26.606Z,14.45
2019-04-10T06:08:31.577Z,14.53
2019-04-10T06:13:36.838Z,14.73
2019-04-10T06:18:42.942Z,14.73
2019-04-10T06:23:48.060Z,14.58
2019-04-10T06:28:52.744Z,14.72
2019-04-10T06:33:58.384Z,14.81
2019-04-10T06:39:04.566Z,14.71
2019-04-10T06:44:11.830Z,14.90
2019-04-10T06:49:16.686Z,15.09
2019-04-10T06:54:21.337Z,14.52
2019-04-10T06:59:26.257Z,14.81
2019-04-10T07:04:43.023Z,14.11
2019-04-10T07:09:37.956Z,14.51
2019-04-10T07:14:45.511Z,14.40
2019-04-10T07:19:49.288Z,14.11
2019-04-10T07:24:54.455Z,14.22
2019-04-10T07:29:59.769Z,14.15
2019-04-10T07:35:06.651Z,15.11
2019-04-10T07:40:12.252Z,15.52
2019-04-10T07:45:17.064Z,15.56
2019-04-10T07:50:22.623Z,15.95
2019-04-10T07:55:28.775Z,15.66
2019-04-10T08:00:34.449Z,16.15
2019-04-10T08:05:39.316Z,16.24
2019-04-10T08:10:45.085Z,15.99
2019-04-10T08:15:50.094Z,15.63
2019-04-10T08:20:55.179Z,16.11
2019-04-10T08:26:00.207Z,15.24
2019-04-10T08:31:04.875Z,16.09
2019-04-10T08:36:10.765Z,15.72
2019-04-10T08:41:17.151Z,15.85
2019-04-10T08:46:21.964Z,16.63
2019-04-10T08:51:27.590Z,16.02
2019-04-10T08:56:32.576Z,17.02
2019-04-10T09:01:37.626Z,17.58
2019-04-10T09:06:42.378Z,17.73
2019-04-10T09:11:47.237Z,17.42
2019-04-10T09:16:53.027Z,18.17
2019-04-10T09:21:58.041Z,17.55
2019-04-10T09:27:02.780Z,17.99
2019-04-10T09:32:08.549Z,18.09
2019-04-10T09:37:13.531Z,17.52
2019-04-10T09:42:19.201Z,17.51
2019-04-10T09:47:24.882Z,16.76
2019-04-10T09:52:29.960Z,17.11
2019-04-10T09:57:34.699Z,17.81
2019-04-10T10:02:39.919Z,18.42
2019-04-10T10:07:45.197Z,18.33
2019-04-10T10:12:50.514Z,18.89
2019-04-10T10:17:55.438Z,18.84
2019-04-10T10:23:01.213Z,18.07
2019-04-10T10:28:07.281Z,18.15
2019-04-10T10:33:13.128Z,18.27
2019-04-10T10:38:18.956Z,17.24
2019-04-10T10:43:24.556Z,16.86
2019-04-10T10:48:29.582Z,18.41
2019-04-10T10:53:34.557Z,18.28
2019-04-10T10:58:39.724Z,17.72
2019-04-10T11:03:44.691Z,18.49
2019-04-10T11:08:51.780Z,17.75
2019-04-10T11:13:57.282Z,18.30
2019-04-10T11:19:02.779Z,18.30
2019-04-10T11:24:09.245Z,18.52
2019-04-10T11:29:14.390Z,18.88
2019-04-10T11:34:19.188Z,18.14
2019-04-10T11:39:26.870Z,17.98
2019-04-10T11:44:33.120Z,18.38
2019-04-10T11:49:40.071Z,18.43
2019-04-10T11:54:44.937Z,18.56
2019-04-10T11:59:49.567Z,18.48
2019-04-10T12:04:58.813Z,18.58
2019-04-10T12:15:08.244Z,18.18
2019-04-10T12:20:13.184Z,18.00
2019-04-10T12:25:18.680Z,18.08
2019-04-10T12:30:23.522Z,18.05
2019-04-10T12:35:29.868Z,17.33
2019-04-10T12:40:35.171Z,17.96
2019-04-10T12:45:40.857Z,18.24
2019-04-10T12:50:45.598Z,17.56
2019-04-10T12:55:51.358Z,16.84
2019-04-10T13:00:56.262Z,17.63
2019-04-10T13:06:01.835Z,17.20
2019-04-10T13:11:07.766Z,17.41
2019-04-10T13:16:14.138Z,16.84
2019-04-10T13:21:20.110Z,17.62
2019-04-10T13:26:25.977Z,17.77
2019-04-10T13:31:30.923Z,17.94
2019-04-10T13:36:35.875Z,18.04
2019-04-10T13:41:40.810Z,18.46
2019-04-10T13:46:45.562Z,18.53
2019-04-10T13:51:50.416Z,18.13
2019-04-10T13:56:55.229Z,18.42
2019-04-10T14:02:00.625Z,18.34
2019-04-10T14:07:07.162Z,18.41
2019-04-10T14:12:12.951Z,18.49
2019-04-10T14:17:17.772Z,18.63
2019-04-10T14:22:22.657Z,18.21
2019-04-10T14:27:30.096Z,18.90
2019-04-10T14:32:37.635Z,18.73
2019-04-10T14:37:43.405Z,18.79
2019-04-10T14:42:49.348Z,19.13
2019-04-10T14:47:55.889Z,18.98
2019-04-10T14:53:02.392Z,19.04
2019-04-10T14:58:19.631Z,18.87
2019-04-10T15:03:14.738Z,19.20
2019-04-10T15:08:19.674Z,19.21
2019-04-10T15:13:25.769Z,19.32
2019-04-10T15:18:31.428Z,19.11
2019-04-10T15:23:36.694Z,19.54
2019-04-10T15:28:41.694Z,19.69
2019-04-10T15:33:48.149Z,19.71
2019-04-10T15:38:53.166Z,19.80
2019-04-10T15:43:57.922Z,19.59
2019-04-10T15:49:02.834Z,19.40
2019-04-10T15:54:07.753Z,18.01
2019-04-10T15:59:12.666Z,18.80
2019-04-10T16:04:17.606Z,19.36
2019-04-10T16:09:23.879Z,18.49
2019-04-10T16:14:30.279Z,19.32
2019-04-10T16:19:56.321Z,19.15
2019-04-10T16:25:03.517Z,18.82
2019-04-10T16:30:10.745Z,18.94
2019-04-10T16:35:15.735Z,18.97
2019-04-10T16:40:21.138Z,18.99
2019-04-10T16:45:26.561Z,18.97
2019-04-10T16:50:32.137Z,18.75
2019-04-10T16:55:38.258Z,18.83
2019-04-10T17:00:43.602Z,18.41
2019-04-10T17:05:50.108Z,18.33
2019-04-10T17:10:56.748Z,17.80
2019-04-10T17:16:02.628Z,17.71
2019-04-10T17:21:08.915Z,17.42
2019-04-10T17:26:14.963Z,16.42
2019-04-10T17:31:20.289Z,17.05
2019-04-10T17:36:27.283Z,17.02
2019-04-10T17:41:33.271Z,16.64
2019-04-10T17:46:41.522Z,16.41
2019-04-10T17:51:48.804Z,16.05
2019-04-10T17:56:54.779Z,16.32
2019-04-10T18:02:01.290Z,16.25
2019-04-10T18:07:07.895Z,16.20
2019-04-10T18:12:14.644Z,15.76
2019-04-10T18:17:19.558Z,15.19
2019-04-10T18:22:28.860Z,14.90
2019-04-10T18:27:38.634Z,15.36
2019-04-10T18:32:44.100Z,15.54
2019-04-10T18:37:49.931Z,15.61
2019-04-10T18:42:56.564Z,15.35
2019-04-10T18:48:02.670Z,14.95
2019-04-10T18:53:08.770Z,14.71
2019-04-10T18:58:15.845Z,14.48
2019-04-10T19:03:29.636Z,14.54
2019-04-10T19:08:35.528Z,14.45
2019-04-10T19:13:42.386Z,14.67
2019-04-10T19:18:48.143Z,14.09
2019-04-10T19:23:53.399Z,13.80
2019-04-10T19:29:01.182Z,13.79
2019-04-10T19:34:07.273Z,14.00
2019-04-10T19:39:14.020Z,13.27
2019-04-10T19:44:21.149Z,13.46
2019-04-10T19:49:26.156Z,13.16
2019-04-10T19:54:31.579Z,13.17
2019-04-10T19:59:36.625Z,12.74
2019-04-10T20:04:41.263Z,13.18
2019-04-10T20:09:46.432Z,13.03
2019-04-10T20:14:51.310Z,12.85
2019-04-10T20:19:57.213Z,13.09
2019-04-10T20:25:02.530Z,13.23
2019-04-10T20:30:07.907Z,12.75
2019-04-10T20:35:12.640Z,12.81
2019-04-10T20:40:19.305Z,13.01
2019-04-10T20:45:25.516Z,12.85
2019-04-10T20:50:30.223Z,12.24
2019-04-10T20:55:35.576Z,12.89
2019-04-10T21:00:43.301Z,12.71
2019-04-10T21:05:48.650Z,12.89
2019-04-10T21:10:53.407Z,12.73
2019-04-10T21:15:59.176Z,12.65
2019-04-10T21:21:04.025Z,12.32
2019-04-10T21:26:08.765Z,12.30
2019-04-10T21:31:15.919Z,12.03
2019-04-10T21:36:20.707Z,12.04
2019-04-10T21:41:25.450Z,11.98
2019-04-10T21:46:30.622Z,12.03
2019-04-10T21:51:35.448Z,12.32
2019-04-10T21:56:40.912Z,12.17
2019-04-10T22:01:46.572Z,11.83
2019-04-10T22:07:11.793Z,11.81
2019-04-10T22:12:29.801Z,12.17
2019-04-10T22:17:28.297Z,12.22
2019-04-10T22:22:33.059Z,12.46
2019-04-10T22:27:37.838Z,12.39
2019-04-10T22:32:42.849Z,12.42
2019-04-10T22:37:48.410Z,12.06
2019-04-10T22:42:53.254Z,11.83
2019-04-10T22:47:58.460Z,11.62
2019-04-10T22:53:03.188Z,11.77
2019-04-10T22:58:08.677Z,11.84
2019-04-10T23:03:13.539Z,12.03
2019-04-10T23:08:18.237Z,12.38
2019-04-10T23:13:23.739Z,12.39
2019-04-10T23:18:29.649Z,11.77
2019-04-10T23:23:34.909Z,11.97
2019-04-10T23:28:39.871Z,12.68
2019-04-10T23:33:44.503Z,12.11
2019-04-10T23:38:49.993Z,12.74
2019-04-10T23:43:55.820Z,12.74
2019-04-10T23:49:01.356Z,12.78
2019-04-10T23:54:09.057Z,12.21
2019-04-10T23:59:14.850Z,12.59
